createdAt,value
2023-01-07T13:10:19.025Z,33.7
2023-01-07T13:15:18.217Z,34.0
2023-01-07T13:20:18.069Z,34.7
2023-01-07T13:25:18.045Z,35.3
2023-01-07T13:30:18.226Z,36.2
2023-01-07T13:35:18.500Z,36.9
2023-01-07T13:40:18.159Z,36.8
2023-01-07T13:45:18.064Z,36.9
2023-01-07T13:50:19.180Z,37.4
2023-01-07T13:55:16.218Z,37.5
2023-01-07T14:00:16.206Z,37.5
2023-01-07T14:05:16.269Z,37.0
2023-01-07T14:10:16.751Z,36.7
2023-01-07T14:15:16.193Z,36.7
2023-01-07T14:20:16.855Z,37.0
2023-01-07T14:25:16.187Z,36.9
2023-01-07T14:30:17.134Z,36.8
2023-01-07T14:35:16.301Z,37.1
2023-01-07T14:40:16.360Z,37.7
2023-01-07T14:45:16.290Z,37.9
2023-01-07T14:50:16.419Z,38.5
2023-01-07T14:55:16.256Z,39.3
2023-01-07T15:00:16.538Z,39.5
2023-01-07T15:05:16.386Z,40.1
2023-01-07T15:10:16.494Z,40.5
2023-01-07T15:15:16.420Z,41.0
2023-01-07T15:20:17.140Z,41.4
2023-01-07T15:25:16.307Z,41.9
2023-01-07T15:30:16.526Z,42.3
2023-01-07T15:35:16.750Z,41.7
2023-01-07T15:40:16.489Z,41.5
2023-01-07T15:45:16.477Z,41.5
2023-01-07T15:50:18.453Z,41.5
2023-01-07T15:55:16.467Z,41.7
2023-01-07T16:00:16.475Z,41.7
2023-01-07T16:05:16.625Z,42.0
2023-01-07T16:10:16.661Z,42.5
2023-01-07T16:15:16.684Z,42.3
2023-01-07T16:20:16.947Z,42.5
2023-01-07T16:25:16.707Z,42.7
2023-01-07T16:30:17.050Z,42.9
2023-01-07T16:35:16.798Z,42.6
2023-01-07T16:40:16.682Z,42.1
2023-01-07T16:45:16.566Z,43.0
2023-01-07T16:50:17.122Z,43.9
2023-01-07T16:55:16.636Z,43.4
2023-01-07T17:00:16.863Z,42.7
2023-01-07T17:05:18.767Z,42.3
2023-01-07T17:10:16.972Z,42.1
2023-01-07T17:15:16.657Z,42.0
2023-01-07T17:20:17.045Z,41.8
2023-01-07T17:25:16.733Z,42.2
2023-01-07T17:30:16.782Z,42.4
2023-01-07T17:35:16.940Z,42.5
2023-01-07T17:40:17.300Z,42.6
2023-01-07T17:45:16.811Z,43.4
2023-01-07T17:50:17.777Z,43.8
2023-01-07T17:55:16.794Z,43.9
2023-01-07T18:00:16.816Z,44.0
2023-01-07T18:05:17.676Z,44.0
2023-01-07T18:10:16.895Z,43.5
2023-01-07T18:15:16.891Z,43.4
2023-01-07T18:20:17.128Z,43.8
2023-01-07T18:25:16.920Z,43.5
2023-01-07T18:30:16.901Z,43.5
2023-01-07T18:35:17.111Z,43.8
2023-01-07T18:40:17.155Z,43.8
2023-01-07T18:45:17.057Z,43.8
2023-01-07T18:50:17.252Z,44.5
2023-01-07T18:55:16.941Z,44.3
2023-01-07T19:00:17.072Z,44.2
2023-01-07T19:05:17.071Z,44.1
2023-01-07T19:10:17.116Z,43.5
2023-01-07T19:15:17.300Z,43.3
2023-01-07T19:20:17.611Z,43.4
2023-01-07T19:25:17.442Z,43.5
2023-01-07T19:30:17.170Z,43.2
2023-01-07T19:35:17.219Z,43.0
2023-01-07T19:40:17.186Z,42.8
2023-01-07T19:45:17.079Z,42.9
2023-01-07T19:50:19.098Z,43.0
2023-01-07T19:55:17.082Z,43.1
2023-01-07T20:00:17.163Z,43.0
2023-01-07T20:05:17.284Z,42.9
2023-01-07T20:10:17.285Z,42.6
2023-01-07T20:15:17.199Z,42.5
2023-01-07T20:20:17.474Z,42.3
2023-01-07T20:25:17.327Z,41.9
2023-01-07T20:30:17.374Z,41.7
2023-01-07T20:35:17.607Z,41.6
2023-01-07T20:40:17.399Z,41.6
2023-01-07T20:45:17.479Z,41.7
2023-01-07T20:50:17.445Z,41.8
2023-01-07T20:55:17.540Z,41.6
2023-01-07T21:00:17.850Z,41.5
2023-01-07T21:05:17.611Z,41.3
2023-01-07T21:10:17.483Z,41.2
2023-01-07T21:15:17.476Z,40.9
2023-01-07T21:20:17.564Z,40.8
2023-01-07T21:25:17.529Z,40.7
2023-01-07T21:30:17.469Z,40.6
2023-01-07T21:35:17.824Z,40.5
2023-01-07T21:40:17.389Z,40.4
2023-01-07T21:45:17.364Z,40.2
2023-01-07T21:50:18.908Z,40.2
2023-01-07T21:55:17.463Z,40.2
2023-01-07T22:00:17.712Z,40.3
2023-01-07T22:05:17.607Z,40.4
2023-01-07T22:10:18.014Z,40.5
2023-01-07T22:15:17.801Z,40.6
2023-01-07T22:20:17.812Z,40.7
2023-01-07T22:25:17.701Z,40.6
2023-01-07T22:30:17.670Z,40.5
2023-01-07T22:35:17.650Z,40.5
2023-01-07T22:40:17.616Z,40.3
2023-01-07T22:45:17.686Z,40.2
2023-01-07T22:50:17.773Z,40.1
2023-01-07T22:55:17.614Z,40.0
2023-01-07T23:00:17.713Z,39.9
2023-01-07T23:05:18.025Z,39.9
2023-01-07T23:10:17.942Z,39.8
2023-01-07T23:15:17.603Z,39.8
2023-01-07T23:20:18.355Z,39.6
2023-01-07T23:25:17.726Z,39.6
2023-01-07T23:30:17.699Z,39.4
2023-01-07T23:35:17.780Z,39.3
2023-01-07T23:40:17.840Z,39.1
2023-01-07T23:45:17.782Z,38.9
2023-01-07T23:50:19.229Z,38.8
2023-01-07T23:55:17.809Z,38.7
